sensor_id;sensor_type;location;lat;lon;timestamp;P1;durP1;ratioP1;P2;durP2;ratioP2
75894;SDS011;64573;50.328;15.014;2023-06-01T00:00:45;4.63;;;1.95;;
75894;SDS011;64573;50.328;15.014;2023-06-01T00:03:11;4.95;;;2.13;;
75894;SDS011;64573;50.328;15.014;2023-06-01T00:05:36;5.32;;;2.55;;
75894;SDS011;64573;50.328;15.014;2023-06-01T00:08:01;4.68;;;2.22;;
75894;SDS011;64573;50.328;15.014;2023-06-01T00:10:29;3.67;;;2.25;;
75894;SDS011;64573;50.328;15.014;2023-06-01T00:12:55;2.78;;;1.88;;
75894;SDS011;64573;50.328;15.014;2023-06-01T00:15:20;5.05;;;2.13;;
75894;SDS011;64573;50.328;15.014;2023-06-01T00:17:45;5.70;;;2.15;;
75894;SDS011;64573;50.328;15.014;2023-06-01T00:20:11;4.45;;;2.10;;
75894;SDS011;64573;50.328;15.014;2023-06-01T00:22:37;3.42;;;2.00;;
75894;SDS011;64573;50.328;15.014;2023-06-01T00:25:06;2.95;;;2.10;;
75894;SDS011;64573;50.328;15.014;2023-06-01T00:27:32;4.75;;;2.58;;
75894;SDS011;64573;50.328;15.014;2023-06-01T00:29:57;4.38;;;2.05;;
75894;SDS011;64573;50.328;15.014;2023-06-01T00:32:23;3.70;;;2.22;;
75894;SDS011;64573;50.328;15.014;2023-06-01T00:34:48;6.18;;;2.25;;
75894;SDS011;64573;50.328;15.014;2023-06-01T00:37:13;3.30;;;2.20;;
75894;SDS011;64573;50.328;15.014;2023-06-01T00:39:39;4.00;;;2.15;;
75894;SDS011;64573;50.328;15.014;2023-06-01T00:42:05;5.28;;;2.42;;
75894;SDS011;64573;50.328;15.014;2023-06-01T00:44:31;3.97;;;2.30;;
75894;SDS011;64573;50.328;15.014;2023-06-01T00:46:56;4.38;;;2.45;;
75894;SDS011;64573;50.328;15.014;2023-06-01T00:49:24;3.70;;;2.10;;
75894;SDS011;64573;50.328;15.014;2023-06-01T00:51:50;5.25;;;2.05;;
75894;SDS011;64573;50.328;15.014;2023-06-01T00:54:15;3.72;;;2.08;;
75894;SDS011;64573;50.328;15.014;2023-06-01T00:56:41;4.68;;;2.22;;
75894;SDS011;64573;50.328;15.014;2023-06-01T00:59:06;3.80;;;2.17;;
75894;SDS011;64573;50.328;15.014;2023-06-01T01:01:32;4.13;;;2.33;;
75894;SDS011;64573;50.328;15.014;2023-06-01T01:03:58;5.38;;;2.28;;
75894;SDS011;64573;50.328;15.014;2023-06-01T01:11:57;2.60;;;2.00;;
75894;SDS011;64573;50.328;15.014;2023-06-01T01:14:36;6.10;;;2.00;;
75894;SDS011;64573;50.328;15.014;2023-06-01T01:17:31;3.63;;;2.40;;
75894;SDS011;64573;50.328;15.014;2023-06-01T01:20:11;4.40;;;2.53;;
75894;SDS011;64573;50.328;15.014;2023-06-01T01:31:03;4.20;;;2.20;;
75894;SDS011;64573;50.328;15.014;2023-06-01T01:33:31;5.18;;;3.10;;
75894;SDS011;64573;50.328;15.014;2023-06-01T01:35:58;3.25;;;2.58;;
75894;SDS011;64573;50.328;15.014;2023-06-01T01:38:24;4.03;;;2.90;;
75894;SDS011;64573;50.328;15.014;2023-06-01T01:40:50;3.33;;;2.28;;
75894;SDS011;64573;50.328;15.014;2023-06-01T01:43:17;6.88;;;2.55;;
75894;SDS011;64573;50.328;15.014;2023-06-01T01:45:43;5.00;;;2.60;;
75894;SDS011;64573;50.328;15.014;2023-06-01T01:51:00;4.85;;;2.42;;
75894;SDS011;64573;50.328;15.014;2023-06-01T01:53:31;4.40;;;2.45;;
75894;SDS011;64573;50.328;15.014;2023-06-01T01:55:57;7.03;;;2.67;;
75894;SDS011;64573;50.328;15.014;2023-06-01T01:58:23;4.18;;;2.20;;
75894;SDS011;64573;50.328;15.014;2023-06-01T02:00:51;4.53;;;2.38;;
75894;SDS011;64573;50.328;15.014;2023-06-01T02:03:18;7.20;;;2.70;;
75894;SDS011;64573;50.328;15.014;2023-06-01T02:05:43;4.10;;;2.53;;
75894;SDS011;64573;50.328;15.014;2023-06-01T02:08:09;3.78;;;2.55;;
75894;SDS011;64573;50.328;15.014;2023-06-01T02:10:36;9.88;;;2.72;;
75894;SDS011;64573;50.328;15.014;2023-06-01T02:13:02;4.00;;;2.05;;
75894;SDS011;64573;50.328;15.014;2023-06-01T02:15:28;5.45;;;2.67;;
75894;SDS011;64573;50.328;15.014;2023-06-01T02:17:53;6.88;;;2.50;;
75894;SDS011;64573;50.328;15.014;2023-06-01T02:20:18;6.75;;;2.53;;
75894;SDS011;64573;50.328;15.014;2023-06-01T02:22:44;5.35;;;2.40;;
75894;SDS011;64573;50.328;15.014;2023-06-01T02:25:10;4.82;;;2.28;;
75894;SDS011;64573;50.328;15.014;2023-06-01T02:27:35;7.85;;;2.42;;
75894;SDS011;64573;50.328;15.014;2023-06-01T02:30:00;5.10;;;2.42;;
75894;SDS011;64573;50.328;15.014;2023-06-01T02:32:26;6.18;;;2.70;;
75894;SDS011;64573;50.328;15.014;2023-06-01T02:34:51;4.53;;;2.40;;
75894;SDS011;64573;50.328;15.014;2023-06-01T02:37:17;4.47;;;2.60;;
75894;SDS011;64573;50.328;15.014;2023-06-01T02:39:42;5.18;;;2.40;;
75894;SDS011;64573;50.328;15.014;2023-06-01T02:42:08;3.28;;;2.33;;
75894;SDS011;64573;50.328;15.014;2023-06-01T02:44:33;7.88;;;2.95;;
75894;SDS011;64573;50.328;15.014;2023-06-01T02:46:58;4.53;;;2.88;;
75894;SDS011;64573;50.328;15.014;2023-06-01T02:49:24;7.45;;;2.97;;
75894;SDS011;64573;50.328;15.014;2023-06-01T02:51:49;6.60;;;2.67;;
75894;SDS011;64573;50.328;15.014;2023-06-01T02:54:14;6.95;;;2.72;;
75894;SDS011;64573;50.328;15.014;2023-06-01T02:56:40;15.20;;;3.40;;
75894;SDS011;64573;50.328;15.014;2023-06-01T02:59:05;6.53;;;2.60;;
75894;SDS011;64573;50.328;15.014;2023-06-01T03:01:31;5.50;;;3.05;;
75894;SDS011;64573;50.328;15.014;2023-06-01T03:04:00;6.38;;;2.70;;
75894;SDS011;64573;50.328;15.014;2023-06-01T03:06:28;6.65;;;2.83;;
75894;SDS011;64573;50.328;15.014;2023-06-01T03:08:56;3.97;;;2.50;;
75894;SDS011;64573;50.328;15.014;2023-06-01T03:11:23;3.47;;;2.70;;
75894;SDS011;64573;50.328;15.014;2023-06-01T03:13:48;6.90;;;3.13;;
75894;SDS011;64573;50.328;15.014;2023-06-01T03:16:14;5.70;;;2.92;;
75894;SDS011;64573;50.328;15.014;2023-06-01T03:18:41;6.43;;;3.40;;
75894;SDS011;64573;50.328;15.014;2023-06-01T03:21:07;5.70;;;3.22;;
75894;SDS011;64573;50.328;15.014;2023-06-01T03:23:32;4.63;;;2.90;;
75894;SDS011;64573;50.328;15.014;2023-06-01T03:25:57;5.93;;;3.20;;
75894;SDS011;64573;50.328;15.014;2023-06-01T03:28:23;7.45;;;3.13;;
75894;SDS011;64573;50.328;15.014;2023-06-01T03:30:48;7.72;;;3.25;;
75894;SDS011;64573;50.328;15.014;2023-06-01T03:33:13;10.25;;;3.30;;
75894;SDS011;64573;50.328;15.014;2023-06-01T03:35:40;10.93;;;2.88;;
75894;SDS011;64573;50.328;15.014;2023-06-01T03:38:05;5.25;;;3.03;;
75894;SDS011;64573;50.328;15.014;2023-06-01T03:40:31;5.68;;;3.22;;
75894;SDS011;64573;50.328;15.014;2023-06-01T03:42:56;9.45;;;3.28;;
75894;SDS011;64573;50.328;15.014;2023-06-01T03:45:21;13.93;;;4.85;;
75894;SDS011;64573;50.328;15.014;2023-06-01T03:47:47;10.00;;;4.47;;
75894;SDS011;64573;50.328;15.014;2023-06-01T03:50:12;8.07;;;3.17;;
75894;SDS011;64573;50.328;15.014;2023-06-01T03:52:38;8.18;;;3.70;;
75894;SDS011;64573;50.328;15.014;2023-06-01T03:55:05;7.38;;;4.05;;
75894;SDS011;64573;50.328;15.014;2023-06-01T03:57:33;8.32;;;3.75;;
75894;SDS011;64573;50.328;15.014;2023-06-01T04:00:00;10.23;;;3.45;;
75894;SDS011;64573;50.328;15.014;2023-06-01T04:02:26;6.00;;;3.60;;
75894;SDS011;64573;50.328;15.014;2023-06-01T04:04:53;9.40;;;3.88;;
75894;SDS011;64573;50.328;15.014;2023-06-01T04:07:20;8.70;;;3.88;;
75894;SDS011;64573;50.328;15.014;2023-06-01T04:09:46;5.53;;;3.55;;
75894;SDS011;64573;50.328;15.014;2023-06-01T04:12:13;9.13;;;3.03;;
75894;SDS011;64573;50.328;15.014;2023-06-01T04:14:40;5.32;;;3.20;;
75894;SDS011;64573;50.328;15.014;2023-06-01T04:17:06;6.38;;;3.25;;
75894;SDS011;64573;50.328;15.014;2023-06-01T04:19:31;5.90;;;3.35;;
75894;SDS011;64573;50.328;15.014;2023-06-01T04:21:58;7.78;;;3.45;;
75894;SDS011;64573;50.328;15.014;2023-06-01T04:24:24;10.02;;;3.75;;
75894;SDS011;64573;50.328;15.014;2023-06-01T04:26:49;6.68;;;3.65;;
75894;SDS011;64573;50.328;15.014;2023-06-01T04:29:15;5.72;;;3.30;;
75894;SDS011;64573;50.328;15.014;2023-06-01T04:31:41;5.13;;;3.47;;
75894;SDS011;64573;50.328;15.014;2023-06-01T04:34:06;5.93;;;3.20;;
75894;SDS011;64573;50.328;15.014;2023-06-01T04:36:35;6.50;;;3.53;;
75894;SDS011;64573;50.328;15.014;2023-06-01T04:39:04;5.43;;;3.20;;
75894;SDS011;64573;50.328;15.014;2023-06-01T04:41:31;5.57;;;3.45;;
75894;SDS011;64573;50.328;15.014;2023-06-01T04:43:58;6.10;;;3.33;;
75894;SDS011;64573;50.328;15.014;2023-06-01T04:46:24;6.28;;;3.38;;
75894;SDS011;64573;50.328;15.014;2023-06-01T04:48:51;8.05;;;3.60;;
75894;SDS011;64573;50.328;15.014;2023-06-01T04:51:18;6.47;;;3.55;;
75894;SDS011;64573;50.328;15.014;2023-06-01T04:53:49;6.47;;;3.45;;
75894;SDS011;64573;50.328;15.014;2023-06-01T04:56:23;5.57;;;3.38;;
75894;SDS011;64573;50.328;15.014;2023-06-01T04:58:52;6.80;;;3.47;;
75894;SDS011;64573;50.328;15.014;2023-06-01T05:01:18;6.43;;;3.17;;
75894;SDS011;64573;50.328;15.014;2023-06-01T05:03:44;10.35;;;3.03;;
75894;SDS011;64573;50.328;15.014;2023-06-01T05:06:13;7.82;;;3.58;;
75894;SDS011;64573;50.328;15.014;2023-06-01T05:08:39;4.82;;;2.97;;
75894;SDS011;64573;50.328;15.014;2023-06-01T05:11:06;4.40;;;3.13;;
75894;SDS011;64573;50.328;15.014;2023-06-01T05:13:36;5.68;;;2.78;;
75894;SDS011;64573;50.328;15.014;2023-06-01T05:16:02;8.38;;;3.03;;
75894;SDS011;64573;50.328;15.014;2023-06-01T05:18:28;5.68;;;2.90;;
75894;SDS011;64573;50.328;15.014;2023-06-01T05:20:54;9.13;;;3.60;;
75894;SDS011;64573;50.328;15.014;2023-06-01T05:23:19;11.25;;;4.07;;
75894;SDS011;64573;50.328;15.014;2023-06-01T05:25:44;15.65;;;3.97;;
75894;SDS011;64573;50.328;15.014;2023-06-01T05:28:10;8.63;;;4.03;;
75894;SDS011;64573;50.328;15.014;2023-06-01T05:30:35;6.95;;;3.72;;
75894;SDS011;64573;50.328;15.014;2023-06-01T05:33:01;9.48;;;4.00;;
75894;SDS011;64573;50.328;15.014;2023-06-01T05:35:28;7.80;;;3.20;;
75894;SDS011;64573;50.328;15.014;2023-06-01T05:37:54;5.25;;;3.03;;
75894;SDS011;64573;50.328;15.014;2023-06-01T05:40:19;6.35;;;3.03;;
75894;SDS011;64573;50.328;15.014;2023-06-01T05:42:44;12.18;;;3.47;;
75894;SDS011;64573;50.328;15.014;2023-06-01T05:45:10;9.75;;;3.30;;
75894;SDS011;64573;50.328;15.014;2023-06-01T05:47:35;4.85;;;2.90;;
75894;SDS011;64573;50.328;15.014;2023-06-01T05:50:00;4.88;;;2.85;;
75894;SDS011;64573;50.328;15.014;2023-06-01T05:52:26;8.75;;;3.75;;
75894;SDS011;64573;50.328;15.014;2023-06-01T05:54:52;7.10;;;3.42;;
75894;SDS011;64573;50.328;15.014;2023-06-01T05:57:18;13.48;;;3.45;;
75894;SDS011;64573;50.328;15.014;2023-06-01T05:59:44;6.90;;;3.30;;
75894;SDS011;64573;50.328;15.014;2023-06-01T06:02:10;7.45;;;3.20;;
75894;SDS011;64573;50.328;15.014;2023-06-01T06:04:36;5.97;;;3.13;;
75894;SDS011;64573;50.328;15.014;2023-06-01T06:07:01;5.32;;;3.00;;
75894;SDS011;64573;50.328;15.014;2023-06-01T06:09:27;9.60;;;3.22;;
75894;SDS011;64573;50.328;15.014;2023-06-01T06:11:52;6.03;;;3.00;;
75894;SDS011;64573;50.328;15.014;2023-06-01T06:14:18;4.80;;;2.83;;
75894;SDS011;64573;50.328;15.014;2023-06-01T06:16:43;10.13;;;3.13;;
75894;SDS011;64573;50.328;15.014;2023-06-01T06:19:08;6.65;;;3.00;;
75894;SDS011;64573;50.328;15.014;2023-06-01T06:21:34;6.60;;;3.13;;
75894;SDS011;64573;50.328;15.014;2023-06-01T06:24:01;4.38;;;2.65;;
75894;SDS011;64573;50.328;15.014;2023-06-01T06:26:26;6.75;;;2.90;;
75894;SDS011;64573;50.328;15.014;2023-06-01T06:28:54;11.13;;;3.10;;
75894;SDS011;64573;50.328;15.014;2023-06-01T06:31:20;6.57;;;3.10;;
75894;SDS011;64573;50.328;15.014;2023-06-01T06:33:46;6.28;;;3.17;;
75894;SDS011;64573;50.328;15.014;2023-06-01T06:36:12;11.35;;;3.63;;
75894;SDS011;64573;50.328;15.014;2023-06-01T06:38:37;5.15;;;3.10;;
75894;SDS011;64573;50.328;15.014;2023-06-01T06:41:02;9.75;;;2.92;;
75894;SDS011;64573;50.328;15.014;2023-06-01T06:43:28;6.28;;;2.80;;
75894;SDS011;64573;50.328;15.014;2023-06-01T06:45:53;6.20;;;3.00;;
75894;SDS011;64573;50.328;15.014;2023-06-01T06:48:19;7.03;;;3.10;;
75894;SDS011;64573;50.328;15.014;2023-06-01T06:50:44;14.60;;;3.45;;
75894;SDS011;64573;50.328;15.014;2023-06-01T06:53:10;6.97;;;3.03;;
75894;SDS011;64573;50.328;15.014;2023-06-01T06:55:36;6.80;;;3.10;;
75894;SDS011;64573;50.328;15.014;2023-06-01T06:58:01;7.07;;;3.30;;
75894;SDS011;64573;50.328;15.014;2023-06-01T07:00:27;9.18;;;3.30;;
75894;SDS011;64573;50.328;15.014;2023-06-01T07:02:52;7.93;;;3.05;;
75894;SDS011;64573;50.328;15.014;2023-06-01T07:05:18;6.60;;;3.22;;
75894;SDS011;64573;50.328;15.014;2023-06-01T07:07:44;6.88;;;2.92;;
75894;SDS011;64573;50.328;15.014;2023-06-01T07:10:09;7.18;;;3.08;;
75894;SDS011;64573;50.328;15.014;2023-06-01T07:12:35;11.48;;;3.72;;
75894;SDS011;64573;50.328;15.014;2023-06-01T07:15:01;9.85;;;2.95;;
75894;SDS011;64573;50.328;15.014;2023-06-01T07:17:27;6.13;;;3.10;;
75894;SDS011;64573;50.328;15.014;2023-06-01T07:19:52;5.30;;;2.95;;
75894;SDS011;64573;50.328;15.014;2023-06-01T07:22:17;8.60;;;3.00;;
75894;SDS011;64573;50.328;15.014;2023-06-01T07:24:43;6.55;;;3.25;;
75894;SDS011;64573;50.328;15.014;2023-06-01T07:27:10;7.20;;;3.10;;
75894;SDS011;64573;50.328;15.014;2023-06-01T07:29:35;8.05;;;2.95;;
75894;SDS011;64573;50.328;15.014;2023-06-01T07:32:01;11.27;;;3.53;;
75894;SDS011;64573;50.328;15.014;2023-06-01T07:34:27;6.57;;;3.00;;
75894;SDS011;64573;50.328;15.014;2023-06-01T07:36:52;6.90;;;3.17;;
75894;SDS011;64573;50.328;15.014;2023-06-01T07:39:18;6.80;;;3.10;;
75894;SDS011;64573;50.328;15.014;2023-06-01T07:41:44;5.82;;;2.60;;
75894;SDS011;64573;50.328;15.014;2023-06-01T07:44:10;6.20;;;3.78;;
75894;SDS011;64573;50.328;15.014;2023-06-01T07:46:37;6.30;;;2.90;;
75894;SDS011;64573;50.328;15.014;2023-06-01T07:49:02;6.03;;;2.90;;
75894;SDS011;64573;50.328;15.014;2023-06-01T07:51:28;7.40;;;2.70;;
75894;SDS011;64573;50.328;15.014;2023-06-01T07:53:54;8.80;;;2.88;;
75894;SDS011;64573;50.328;15.014;2023-06-01T07:56:22;8.45;;;2.88;;
75894;SDS011;64573;50.328;15.014;2023-06-01T07:58:51;5.50;;;2.70;;
75894;SDS011;64573;50.328;15.014;2023-06-01T08:01:20;4.75;;;2.50;;
75894;SDS011;64573;50.328;15.014;2023-06-01T08:03:45;7.22;;;2.80;;
75894;SDS011;64573;50.328;15.014;2023-06-01T08:06:11;7.22;;;2.80;;
75894;SDS011;64573;50.328;15.014;2023-06-01T08:08:37;5.47;;;2.70;;
75894;SDS011;64573;50.328;15.014;2023-06-01T08:11:04;11.43;;;2.95;;
75894;SDS011;64573;50.328;15.014;2023-06-01T08:13:30;5.13;;;2.67;;
75894;SDS011;64573;50.328;15.014;2023-06-01T08:15:55;6.75;;;2.80;;
75894;SDS011;64573;50.328;15.014;2023-06-01T08:18:21;7.72;;;3.10;;
75894;SDS011;64573;50.328;15.014;2023-06-01T08:20:47;7.60;;;2.67;;
75894;SDS011;64573;50.328;15.014;2023-06-01T08:23:13;6.85;;;2.95;;
75894;SDS011;64573;50.328;15.014;2023-06-01T08:25:41;7.07;;;3.17;;
75894;SDS011;64573;50.328;15.014;2023-06-01T08:28:08;11.45;;;3.75;;
75894;SDS011;64573;50.328;15.014;2023-06-01T08:30:33;8.43;;;3.80;;
75894;SDS011;64573;50.328;15.014;2023-06-01T08:32:59;7.03;;;3.50;;
75894;SDS011;64573;50.328;15.014;2023-06-01T08:35:24;8.30;;;3.75;;
75894;SDS011;64573;50.328;15.014;2023-06-01T08:37:50;13.85;;;2.90;;
75894;SDS011;64573;50.328;15.014;2023-06-01T08:40:15;10.02;;;3.70;;
75894;SDS011;64573;50.328;15.014;2023-06-01T08:42:43;7.90;;;3.63;;
75894;SDS011;64573;50.328;15.014;2023-06-01T08:45:19;8.48;;;3.30;;
75894;SDS011;64573;50.328;15.014;2023-06-01T08:47:45;11.52;;;3.92;;
75894;SDS011;64573;50.328;15.014;2023-06-01T08:50:12;6.22;;;3.25;;
75894;SDS011;64573;50.328;15.014;2023-06-01T08:52:38;8.70;;;3.22;;
75894;SDS011;64573;50.328;15.014;2023-06-01T08:55:06;6.43;;;3.20;;
75894;SDS011;64573;50.328;15.014;2023-06-01T08:57:32;6.45;;;3.00;;
75894;SDS011;64573;50.328;15.014;2023-06-01T08:59:58;8.20;;;3.13;;
75894;SDS011;64573;50.328;15.014;2023-06-01T09:02:26;8.02;;;2.95;;
75894;SDS011;64573;50.328;15.014;2023-06-01T09:04:52;7.80;;;3.08;;
75894;SDS011;64573;50.328;15.014;2023-06-01T09:07:18;6.47;;;2.38;;
75894;SDS011;64573;50.328;15.014;2023-06-01T09:09:44;6.82;;;2.80;;
75894;SDS011;64573;50.328;15.014;2023-06-01T09:14:51;9.00;;;2.63;;
75894;SDS011;64573;50.328;15.014;2023-06-01T09:17:32;6.47;;;2.40;;
75894;SDS011;64573;50.328;15.014;2023-06-01T09:19:57;6.35;;;2.30;;
75894;SDS011;64573;50.328;15.014;2023-06-01T09:22:23;5.95;;;2.60;;
75894;SDS011;64573;50.328;15.014;2023-06-01T09:24:55;5.93;;;2.65;;
75894;SDS011;64573;50.328;15.014;2023-06-01T09:27:22;12.18;;;2.60;;
75894;SDS011;64573;50.328;15.014;2023-06-01T09:29:54;6.38;;;2.30;;
75894;SDS011;64573;50.328;15.014;2023-06-01T09:34:47;9.00;;;2.43;;
75894;SDS011;64573;50.328;15.014;2023-06-01T09:37:12;4.72;;;1.95;;
75894;SDS011;64573;50.328;15.014;2023-06-01T09:39:39;5.88;;;2.05;;
75894;SDS011;64573;50.328;15.014;2023-06-01T09:42:05;6.10;;;2.33;;
75894;SDS011;64573;50.328;15.014;2023-06-01T09:44:35;3.47;;;1.90;;
75894;SDS011;64573;50.328;15.014;2023-06-01T09:49:29;8.68;;;2.20;;
75894;SDS011;64573;50.328;15.014;2023-06-01T09:54:32;4.47;;;2.22;;
75894;SDS011;64573;50.328;15.014;2023-06-01T09:57:01;4.82;;;1.85;;
75894;SDS011;64573;50.328;15.014;2023-06-01T09:59:28;4.93;;;2.00;;
75894;SDS011;64573;50.328;15.014;2023-06-01T10:01:55;4.20;;;2.22;;
75894;SDS011;64573;50.328;15.014;2023-06-01T10:04:25;5.20;;;1.98;;
75894;SDS011;64573;50.328;15.014;2023-06-01T10:06:55;6.05;;;2.28;;
75894;SDS011;64573;50.328;15.014;2023-06-01T10:09:22;7.30;;;1.70;;
75894;SDS011;64573;50.328;15.014;2023-06-01T10:11:50;3.83;;;1.80;;
75894;SDS011;64573;50.328;15.014;2023-06-01T10:14:18;2.28;;;1.70;;
75894;SDS011;64573;50.328;15.014;2023-06-01T10:16:45;3.83;;;1.70;;
75894;SDS011;64573;50.328;15.014;2023-06-01T10:19:13;3.88;;;1.83;;
75894;SDS011;64573;50.328;15.014;2023-06-01T10:21:39;4.18;;;1.83;;
75894;SDS011;64573;50.328;15.014;2023-06-01T10:24:05;3.13;;;1.50;;
75894;SDS011;64573;50.328;15.014;2023-06-01T10:26:36;4.45;;;1.92;;
75894;SDS011;64573;50.328;15.014;2023-06-01T10:29:06;5.70;;;1.75;;
75894;SDS011;64573;50.328;15.014;2023-06-01T10:34:07;6.80;;;1.58;;
75894;SDS011;64573;50.328;15.014;2023-06-01T10:39:24;3.17;;;1.70;;
75894;SDS011;64573;50.328;15.014;2023-06-01T10:41:55;2.33;;;1.50;;
75894;SDS011;64573;50.328;15.014;2023-06-01T10:52:32;3.03;;;1.60;;
75894;SDS011;64573;50.328;15.014;2023-06-01T10:57:30;2.90;;;1.40;;
75894;SDS011;64573;50.328;15.014;2023-06-01T11:08:02;4.55;;;2.08;;
75894;SDS011;64573;50.328;15.014;2023-06-01T11:10:57;3.53;;;1.75;;
75894;SDS011;64573;50.328;15.014;2023-06-01T11:18:48;7.53;;;1.50;;
75894;SDS011;64573;50.328;15.014;2023-06-01T11:21:32;2.78;;;1.77;;
75894;SDS011;64573;50.328;15.014;2023-06-01T11:24:11;2.20;;;1.70;;
75894;SDS011;64573;50.328;15.014;2023-06-01T11:26:42;4.80;;;1.63;;
75894;SDS011;64573;50.328;15.014;2023-06-01T11:31:41;3.92;;;1.67;;
75894;SDS011;64573;50.328;15.014;2023-06-01T11:34:08;3.95;;;1.63;;
75894;SDS011;64573;50.328;15.014;2023-06-01T11:36:35;3.47;;;2.10;;
75894;SDS011;64573;50.328;15.014;2023-06-01T11:39:02;4.13;;;2.10;;
75894;SDS011;64573;50.328;15.014;2023-06-01T11:41:28;2.15;;;1.63;;
75894;SDS011;64573;50.328;15.014;2023-06-01T11:43:56;5.60;;;1.92;;
75894;SDS011;64573;50.328;15.014;2023-06-01T11:46:22;6.30;;;2.17;;
75894;SDS011;64573;50.328;15.014;2023-06-01T11:48:58;4.70;;;1.70;;
75894;SDS011;64573;50.328;15.014;2023-06-01T11:51:26;4.75;;;1.95;;
75894;SDS011;64573;50.328;15.014;2023-06-01T11:53:56;4.40;;;1.83;;
75894;SDS011;64573;50.328;15.014;2023-06-01T11:56:27;4.75;;;1.60;;
75894;SDS011;64573;50.328;15.014;2023-06-01T11:58:56;3.60;;;1.60;;
75894;SDS011;64573;50.328;15.014;2023-06-01T12:01:24;3.40;;;1.40;;
75894;SDS011;64573;50.328;15.014;2023-06-01T12:03:50;2.47;;;1.70;;
75894;SDS011;64573;50.328;15.014;2023-06-01T12:06:21;2.67;;;1.70;;
75894;SDS011;64573;50.328;15.014;2023-06-01T12:08:48;3.28;;;1.52;;
75894;SDS011;64573;50.328;15.014;2023-06-01T12:11:18;3.95;;;1.75;;
75894;SDS011;64573;50.328;15.014;2023-06-01T12:13:46;3.35;;;1.80;;
75894;SDS011;64573;50.328;15.014;2023-06-01T12:16:13;11.63;;;1.80;;
75894;SDS011;64573;50.328;15.014;2023-06-01T12:18:40;2.90;;;1.90;;
75894;SDS011;64573;50.328;15.014;2023-06-01T12:21:09;6.03;;;1.90;;
75894;SDS011;64573;50.328;15.014;2023-06-01T12:23:38;4.82;;;1.40;;
75894;SDS011;64573;50.328;15.014;2023-06-01T12:26:04;4.45;;;1.70;;
75894;SDS011;64573;50.328;15.014;2023-06-01T12:28:46;5.13;;;1.48;;
75894;SDS011;64573;50.328;15.014;2023-06-01T12:31:20;2.30;;;1.60;;
75894;SDS011;64573;50.328;15.014;2023-06-01T12:33:46;2.65;;;1.70;;
75894;SDS011;64573;50.328;15.014;2023-06-01T12:36:29;3.15;;;1.80;;
75894;SDS011;64573;50.328;15.014;2023-06-01T12:38:59;6.95;;;1.80;;
75894;SDS011;64573;50.328;15.014;2023-06-01T12:41:26;6.38;;;1.70;;
75894;SDS011;64573;50.328;15.014;2023-06-01T12:43:52;5.03;;;2.25;;
75894;SDS011;64573;50.328;15.014;2023-06-01T12:48:44;3.90;;;2.10;;
75894;SDS011;64573;50.328;15.014;2023-06-01T12:51:11;5.30;;;2.00;;
75894;SDS011;64573;50.328;15.014;2023-06-01T12:53:37;5.63;;;2.20;;
75894;SDS011;64573;50.328;15.014;2023-06-01T12:56:03;4.30;;;1.70;;
75894;SDS011;64573;50.328;15.014;2023-06-01T12:58:29;4.68;;;1.70;;
75894;SDS011;64573;50.328;15.014;2023-06-01T13:00:55;3.85;;;1.90;;
75894;SDS011;64573;50.328;15.014;2023-06-01T13:03:21;3.97;;;1.90;;
75894;SDS011;64573;50.328;15.014;2023-06-01T13:05:47;3.95;;;1.70;;
75894;SDS011;64573;50.328;15.014;2023-06-01T13:08:14;3.47;;;1.85;;
75894;SDS011;64573;50.328;15.014;2023-06-01T13:10:41;6.55;;;2.13;;
75894;SDS011;64573;50.328;15.014;2023-06-01T13:13:07;2.75;;;2.00;;
75894;SDS011;64573;50.328;15.014;2023-06-01T13:15:33;4.50;;;1.60;;
75894;SDS011;64573;50.328;15.014;2023-06-01T13:17:59;2.95;;;1.90;;
75894;SDS011;64573;50.328;15.014;2023-06-01T13:20:24;3.58;;;1.70;;
75894;SDS011;64573;50.328;15.014;2023-06-01T13:22:50;5.38;;;1.92;;
75894;SDS011;64573;50.328;15.014;2023-06-01T13:25:17;2.42;;;1.42;;
75894;SDS011;64573;50.328;15.014;2023-06-01T13:27:44;2.17;;;1.60;;
75894;SDS011;64573;50.328;15.014;2023-06-01T13:30:09;4.80;;;2.08;;
75894;SDS011;64573;50.328;15.014;2023-06-01T13:32:35;2.88;;;1.40;;
75894;SDS011;64573;50.328;15.014;2023-06-01T13:35:01;3.45;;;1.63;;
75894;SDS011;64573;50.328;15.014;2023-06-01T13:37:26;3.90;;;1.80;;
75894;SDS011;64573;50.328;15.014;2023-06-01T13:39:51;4.03;;;1.70;;
75894;SDS011;64573;50.328;15.014;2023-06-01T13:42:17;9.85;;;1.80;;
75894;SDS011;64573;50.328;15.014;2023-06-01T13:44:42;3.78;;;1.98;;
75894;SDS011;64573;50.328;15.014;2023-06-01T13:47:10;2.45;;;1.50;;
75894;SDS011;64573;50.328;15.014;2023-06-01T13:49:42;3.97;;;1.70;;
75894;SDS011;64573;50.328;15.014;2023-06-01T13:52:08;3.90;;;1.48;;
75894;SDS011;64573;50.328;15.014;2023-06-01T13:54:34;3.55;;;1.70;;
75894;SDS011;64573;50.328;15.014;2023-06-01T13:56:59;2.28;;;1.52;;
75894;SDS011;64573;50.328;15.014;2023-06-01T13:59:27;5.45;;;1.65;;
75894;SDS011;64573;50.328;15.014;2023-06-01T14:01:52;2.65;;;1.55;;
75894;SDS011;64573;50.328;15.014;2023-06-01T14:04:18;3.35;;;1.60;;
75894;SDS011;64573;50.328;15.014;2023-06-01T14:06:43;3.85;;;1.52;;
75894;SDS011;64573;50.328;15.014;2023-06-01T14:09:09;2.80;;;1.40;;
75894;SDS011;64573;50.328;15.014;2023-06-01T14:11:34;3.03;;;1.48;;
75894;SDS011;64573;50.328;15.014;2023-06-01T14:13:59;3.45;;;1.77;;
75894;SDS011;64573;50.328;15.014;2023-06-01T14:16:25;2.45;;;1.80;;
75894;SDS011;64573;50.328;15.014;2023-06-01T14:18:50;2.80;;;1.48;;
75894;SDS011;64573;50.328;15.014;2023-06-01T14:21:16;2.30;;;1.45;;
75894;SDS011;64573;50.328;15.014;2023-06-01T14:23:41;4.78;;;1.60;;
75894;SDS011;64573;50.328;15.014;2023-06-01T14:26:09;6.03;;;1.60;;
75894;SDS011;64573;50.328;15.014;2023-06-01T14:28:35;5.25;;;1.83;;
75894;SDS011;64573;50.328;15.014;2023-06-01T14:31:00;4.55;;;1.50;;
75894;SDS011;64573;50.328;15.014;2023-06-01T14:33:25;2.88;;;1.67;;
75894;SDS011;64573;50.328;15.014;2023-06-01T14:35:51;3.30;;;1.45;;
75894;SDS011;64573;50.328;15.014;2023-06-01T14:38:17;3.00;;;1.40;;
75894;SDS011;64573;50.328;15.014;2023-06-01T14:40:42;3.17;;;1.60;;
75894;SDS011;64573;50.328;15.014;2023-06-01T14:43:08;4.28;;;1.67;;
75894;SDS011;64573;50.328;15.014;2023-06-01T14:45:33;1.75;;;1.52;;
75894;SDS011;64573;50.328;15.014;2023-06-01T14:47:59;4.57;;;1.90;;
75894;SDS011;64573;50.328;15.014;2023-06-01T14:50:25;3.25;;;1.85;;
75894;SDS011;64573;50.328;15.014;2023-06-01T14:52:51;3.50;;;1.67;;
75894;SDS011;64573;50.328;15.014;2023-06-01T14:55:16;4.65;;;1.65;;
75894;SDS011;64573;50.328;15.014;2023-06-01T14:57:43;3.22;;;1.65;;
75894;SDS011;64573;50.328;15.014;2023-06-01T15:00:12;3.03;;;1.52;;
75894;SDS011;64573;50.328;15.014;2023-06-01T15:02:38;3.33;;;1.73;;
75894;SDS011;64573;50.328;15.014;2023-06-01T15:05:03;3.70;;;1.58;;
75894;SDS011;64573;50.328;15.014;2023-06-01T15:07:32;1.50;;;1.38;;
75894;SDS011;64573;50.328;15.014;2023-06-01T15:10:00;6.10;;;2.00;;
75894;SDS011;64573;50.328;15.014;2023-06-01T15:12:26;2.60;;;1.67;;
75894;SDS011;64573;50.328;15.014;2023-06-01T15:14:51;2.95;;;1.65;;
75894;SDS011;64573;50.328;15.014;2023-06-01T15:17:17;3.67;;;1.67;;
75894;SDS011;64573;50.328;15.014;2023-06-01T15:19:42;4.80;;;1.75;;
75894;SDS011;64573;50.328;15.014;2023-06-01T15:22:07;2.20;;;1.60;;
75894;SDS011;64573;50.328;15.014;2023-06-01T15:24:33;5.18;;;1.70;;
75894;SDS011;64573;50.328;15.014;2023-06-01T15:26:58;3.80;;;1.77;;
75894;SDS011;64573;50.328;15.014;2023-06-01T15:29:23;9.73;;;1.90;;
75894;SDS011;64573;50.328;15.014;2023-06-01T15:31:49;3.92;;;1.65;;